Time;durP1;ratioP1;P1;durP2;ratioP2;P2;SDS_P1;SDS_P2;PMS_P1;PMS_P2;Temp;Humidity;BMP_temperature;BMP_pressure;BME280_temperature;BME280_humidity;BME280_pressure;Samples;Min_cycle;Max_cycle;Signal;HPM_P1;HPM_P2
2022/08/12 04:01:42;;;;;;;4.83;4.53;;;17.00;99.90;;;;;;5305029;23;21059;-66
2022/08/12 04:04:10;;;;;;;4.20;4.10;;;16.90;99.90;;;;;;4900459;29;20919;-66
2022/08/12 04:06:44;;;;;;;3.37;3.27;;;16.90;99.90;;;;;;4893226;29;20505;-68
2022/08/12 04:09:12;;;;;;;3.67;3.50;;;16.90;99.90;;;;;;4900384;29;20899;-66
2022/08/12 04:14:27;;;;;;;4.37;4.07;;;16.90;99.90;;;;;;4900706;29;20556;-67
2022/08/12 04:16:56;;;;;;;5.30;4.90;;;16.90;99.90;;;;;;4901021;29;20477;-68
2022/08/12 04:19:24;;;;;;;4.60;4.40;;;16.90;99.90;;;;;;4898396;29;20549;-67
2022/08/12 04:21:54;;;;;;;4.40;4.00;;;16.90;99.90;;;;;;4898616;29;20496;-68
2022/08/12 04:24:23;;;;;;;4.30;4.10;;;16.90;99.90;;;;;;4900954;29;20502;-68
2022/08/12 04:26:50;;;;;;;4.17;3.90;;;16.90;99.90;;;;;;4899124;29;20482;-67
2022/08/12 04:29:19;;;;;;;4.10;3.90;;;16.90;99.90;;;;;;4902190;29;20931;-68
2022/08/12 04:31:45;;;;;;;4.47;4.10;;;16.90;99.90;;;;;;4898524;29;20493;-69
2022/08/12 04:34:14;;;;;;;4.10;3.83;;;17.00;99.90;;;;;;4900664;29;20496;-67
2022/08/12 04:36:42;;;;;;;5.77;4.30;;;17.00;99.90;;;;;;4897980;29;20480;-67
2022/08/12 04:39:11;;;;;;;3.17;2.97;;;17.00;99.90;;;;;;4900731;29;20596;-68
2022/08/12 04:41:39;;;;;;;4.83;4.63;;;17.00;99.90;;;;;;4899535;29;20505;-68
2022/08/12 04:44:07;;;;;;;3.80;3.60;;;17.00;99.90;;;;;;4900543;29;20537;-68
2022/08/12 04:46:34;;;;;;;3.80;3.70;;;17.00;99.90;;;;;;4900978;29;20552;-68
2022/08/12 04:49:02;;;;;;;4.00;3.70;;;17.50;99.90;;;;;;4900474;29;20474;-68
2022/08/12 04:51:30;;;;;;;3.80;3.67;;;18.20;99.90;;;;;;4898348;29;20498;-68
2022/08/12 04:53:56;;;;;;;3.60;3.50;;;18.90;99.90;;;;;;4895827;29;20487;-69
2022/08/12 04:56:23;;;;;;;3.10;2.97;;;19.50;99.90;;;;;;4896059;29;20472;-68
2022/08/12 04:58:50;;;;;;;3.70;3.50;;;20.10;99.90;;;;;;4902305;29;20515;-68
2022/08/12 05:01:17;;;;;;;4.20;3.93;;;20.50;99.90;;;;;;4897670;29;20513;-68
2022/08/12 05:03:43;;;;;;;3.40;3.40;;;20.70;99.90;;;;;;4898077;29;20827;-69
2022/08/12 05:06:11;;;;;;;4.30;4.00;;;20.60;99.90;;;;;;4893541;29;20476;-69
2022/08/12 05:08:39;;;;;;;3.70;3.27;;;20.30;99.90;;;;;;4896203;29;20485;-69
2022/08/12 05:11:06;;;;;;;4.00;3.70;;;20.20;99.90;;;;;;4895095;29;20657;-69
2022/08/12 05:13:37;;;;;;;3.70;3.50;;;19.90;99.90;;;;;;4895725;29;20551;-68
2022/08/12 05:16:05;;;;;;;8.20;4.13;;;19.70;99.90;;;;;;4895088;29;20472;-68
2022/08/12 05:18:32;;;;;;;3.80;3.70;;;19.50;99.90;;;;;;4896644;29;20565;-68
2022/08/12 05:20:59;;;;;;;4.57;4.37;;;19.30;99.90;;;;;;4891800;29;20495;-68
2022/08/12 05:23:26;;;;;;;4.57;4.27;;;19.20;99.90;;;;;;4894097;29;20506;-68
2022/08/12 05:25:56;;;;;;;3.80;3.60;;;19.10;99.90;;;;;;4895481;29;20546;-68
2022/08/12 05:28:23;;;;;;;7.53;5.10;;;19.00;99.90;;;;;;4895970;29;20582;-68
2022/08/12 05:30:50;;;;;;;5.00;4.67;;;18.90;99.90;;;;;;4896027;29;20526;-68
2022/08/12 05:33:17;;;;;;;5.30;5.00;;;18.80;99.90;;;;;;4895521;29;20497;-69
2022/08/12 05:35:46;;;;;;;5.40;5.10;;;18.70;99.90;;;;;;4894423;29;20556;-68
2022/08/12 05:41:04;;;;;;;10.23;9.23;;;18.70;99.90;;;;;;4892022;29;20891;-67
2022/08/12 05:43:33;;;;;;;12.70;11.60;;;18.70;99.90;;;;;;4892156;29;20470;-68
2022/08/12 05:45:59;;;;;;;13.90;12.47;;;18.60;99.90;;;;;;4889588;29;20534;-69
2022/08/12 05:48:27;;;;;;;17.70;16.00;;;18.60;99.90;;;;;;4896405;29;20481;-67
2022/08/12 05:50:55;;;;;;;15.80;14.37;;;18.60;99.90;;;;;;4893863;29;20504;-68
2022/08/12 05:53:22;;;;;;;10.30;9.50;;;18.60;99.90;;;;;;4895290;29;20645;-69
2022/08/12 05:55:52;;;;;;;6.80;6.30;;;18.60;99.90;;;;;;4894758;29;20538;-67
2022/08/12 05:58:20;;;;;;;6.07;5.57;;;18.60;99.90;;;;;;4894705;29;20487;-68
2022/08/12 06:00:46;;;;;;;5.90;5.50;;;18.70;99.90;;;;;;4893268;29;20593;-67
2022/08/12 06:03:16;;;;;;;6.27;5.77;;;18.70;99.90;;;;;;4895586;29;20479;-68
2022/08/12 06:05:45;;;;;;;5.87;5.57;;;18.70;99.90;;;;;;4896106;29;20478;-68
2022/08/12 06:08:12;;;;;;;7.20;5.23;;;18.70;99.90;;;;;;4893582;29;20477;-67
2022/08/12 06:10:39;;;;;;;4.70;4.50;;;18.90;99.90;;;;;;4895209;29;20505;-68
2022/08/12 06:13:07;;;;;;;4.07;3.97;;;19.70;99.90;;;;;;4894721;29;20628;-68
2022/08/12 06:15:36;;;;;;;3.70;3.50;;;20.70;99.90;;;;;;4894808;29;20485;-68
2022/08/12 06:18:06;;;;;;;3.73;3.40;;;21.70;99.90;;;;;;4892140;29;20602;-68
2022/08/12 06:20:33;;;;;;;3.83;3.50;;;22.60;99.90;;;;;;4893109;29;20552;-68
2022/08/12 06:23:00;;;;;;;3.67;3.57;;;23.60;99.90;;;;;;4892010;29;20510;-68
2022/08/12 06:25:28;;;;;;;4.63;3.70;;;24.40;99.90;;;;;;4893748;29;20463;-67
2022/08/12 06:27:55;;;;;;;3.80;3.60;;;25.20;99.90;;;;;;4894573;29;20468;-66
2022/08/12 06:30:22;;;;;;;3.57;3.33;;;26.00;99.90;;;;;;4894807;29;20219;-68
2022/08/12 06:32:51;;;;;;;3.20;3.20;;;26.50;99.90;;;;;;4894063;29;20531;-68
2022/08/12 06:35:18;;;;;;;3.13;3.03;;;26.90;99.90;;;;;;4890325;29;20504;-68
2022/08/12 06:37:48;;;;;;;3.67;3.57;;;27.00;99.90;;;;;;4894404;29;20529;-65
2022/08/12 06:42:46;;;;;;;3.23;3.13;;;27.40;99.90;;;;;;4892732;29;20491;-65
2022/08/12 06:43:02;;;;;;;3.43;3.27;;;27.90;99.90;;;;;;4893821;29;20585;-68
2022/08/12 06:45:30;;;;;;;3.80;3.60;;;28.50;99.40;;;;;;4892431;29;20483;-66
2022/08/12 06:48:05;;;;;;;3.93;3.80;;;28.70;98.30;;;;;;4893596;29;20620;-66
2022/08/12 06:50:32;;;;;;;4.07;3.70;;;28.90;96.40;;;;;;4893840;29;20498;-67
2022/08/12 06:52:59;;;;;;;3.70;3.40;;;29.10;96.00;;;;;;4886187;29;20823;-67
2022/08/12 06:55:26;;;;;;;3.57;3.47;;;29.30;95.40;;;;;;4889402;29;20499;-66
2022/08/12 06:57:54;;;;;;;3.80;3.70;;;30.10;93.50;;;;;;4894798;29;20475;-67
2022/08/12 07:00:22;;;;;;;4.20;3.70;;;30.10;93.80;;;;;;4892380;29;20482;-67
2022/08/12 07:02:50;;;;;;;3.20;3.10;;;30.50;92.50;;;;;;4892737;29;20513;-68
2022/08/12 07:05:23;;;;;;;3.30;3.03;;;30.50;92.00;;;;;;4891042;29;20483;-69
2022/08/12 07:08:05;;;;;;;3.43;3.23;;;30.50;91.40;;;;;;4893139;29;20498;-68
2022/08/12 07:10:33;;;;;;;3.10;3.00;;;30.70;90.00;;;;;;4890265;29;20538;-68
2022/08/12 07:13:01;;;;;;;3.30;3.10;;;30.60;89.60;;;;;;4889622;29;20474;-68
2022/08/12 07:15:30;;;;;;;3.67;3.43;;;31.20;88.20;;;;;;4894806;29;20937;-66
2022/08/12 07:18:04;;;;;;;2.73;2.63;;;31.40;87.30;;;;;;4893794;29;20982;-66
2022/08/12 07:20:34;;;;;;;2.50;2.40;;;31.50;86.70;;;;;;4894308;29;20516;-68
2022/08/12 07:23:03;;;;;;;3.13;2.93;;;31.30;85.20;;;;;;4892082;29;20479;-67
2022/08/12 07:25:31;;;;;;;3.00;2.80;;;30.70;85.10;;;;;;4888303;29;20526;-67
2022/08/12 07:28:02;;;;;;;3.10;2.90;;;30.60;87.00;;;;;;4892082;29;20825;-67
2022/08/12 07:30:30;;;;;;;2.80;2.70;;;30.60;85.70;;;;;;4890320;29;20528;-68
2022/08/12 07:32:57;;;;;;;2.63;2.53;;;30.60;86.40;;;;;;4894477;29;20474;-68
2022/08/12 07:35:24;;;;;;;3.30;3.07;;;30.80;84.70;;;;;;4894737;29;20609;-68
2022/08/12 07:37:52;;;;;;;3.47;3.37;;;30.60;85.70;;;;;;4894672;29;20474;-68
2022/08/12 07:40:19;;;;;;;3.13;3.03;;;30.00;86.10;;;;;;4892689;29;20473;-67
2022/08/12 07:42:46;;;;;;;3.70;3.40;;;28.90;87.20;;;;;;4894243;29;20466;-67
2022/08/12 07:45:13;;;;;;;3.40;3.10;;;28.40;89.90;;;;;;4893993;29;20567;-65
2022/08/12 07:47:42;;;;;;;3.77;3.67;;;27.90;90.80;;;;;;4895306;29;20479;-67
2022/08/12 07:50:09;;;;;;;3.80;3.37;;;27.60;91.30;;;;;;4896661;29;20475;-68
2022/08/12 07:52:37;;;;;;;3.33;3.23;;;27.50;91.40;;;;;;4895376;29;20494;-66
2022/08/12 07:55:07;;;;;;;3.30;3.20;;;27.10;91.80;;;;;;4896471;29;20523;-67
2022/08/12 07:57:34;;;;;;;3.73;3.53;;;26.80;91.70;;;;;;4895474;29;20968;-67
2022/08/12 08:00:04;;;;;;;4.70;3.47;;;26.60;91.90;;;;;;4896282;29;20491;-66
2022/08/12 08:02:32;;;;;;;3.60;3.50;;;26.60;92.10;;;;;;4896571;29;20582;-67
2022/08/12 08:04:59;;;;;;;6.43;3.50;;;26.30;92.40;;;;;;4891403;29;20495;-66
2022/08/12 08:07:28;;;;;;;4.27;3.33;;;26.10;93.10;;;;;;4897476;29;20472;-64
2022/08/12 08:09:56;;;;;;;4.73;3.80;;;26.00;93.70;;;;;;4893763;29;20531;-67
2022/08/12 08:15:10;;;;;;;3.77;3.67;;;26.00;94.10;;;;;;4894881;29;20639;-67
2022/08/12 08:17:37;;;;;;;3.53;3.33;;;26.00;93.20;;;;;;4891587;29;20472;-66
2022/08/12 08:20:04;;;;;;;4.10;3.80;;;26.00;93.20;;;;;;4896758;29;20562;-67
2022/08/12 08:22:37;;;;;;;6.60;3.33;;;26.10;92.50;;;;;;4895521;29;20578;-67
2022/08/12 08:25:05;;;;;;;2.93;2.87;;;26.10;92.70;;;;;;4889494;29;20558;-67
2022/08/12 08:27:45;;;;;;;3.23;3.13;;;26.10;91.80;;;;;;4894927;29;21000;-67
2022/08/12 08:30:13;;;;;;;4.60;3.70;;;26.00;91.20;;;;;;4893652;29;20475;-67
2022/08/12 08:32:40;;;;;;;3.40;3.30;;;26.00;91.00;;;;;;4897178;29;20554;-68
2022/08/12 08:35:10;;;;;;;3.50;3.30;;;26.00;91.40;;;;;;4896848;29;20605;-67
2022/08/12 08:37:36;;;;;;;3.30;3.20;;;26.00;91.40;;;;;;4892135;29;20475;-66
2022/08/12 08:42:47;;;;;;;3.23;3.13;;;26.00;91.20;;;;;;4887313;29;20499;-66
2022/08/12 08:45:14;;;;;;;2.83;2.80;;;26.10;91.10;;;;;;4897344;29;20465;-66
2022/08/12 08:47:44;;;;;;;2.63;2.53;;;26.10;90.90;;;;;;4896711;29;20563;-67
2022/08/12 08:50:14;;;;;;;2.80;2.80;;;26.30;90.40;;;;;;4895626;29;20935;-66
2022/08/12 08:52:40;;;;;;;3.13;2.83;;;26.30;90.20;;;;;;4895169;29;20543;-67
2022/08/12 08:55:09;;;;;;;2.93;2.83;;;26.30;90.10;;;;;;4889432;29;20539;-66
2022/08/12 08:57:35;;;;;;;2.73;2.63;;;26.30;89.00;;;;;;4893535;29;20559;-67
2022/08/12 09:00:05;;;;;;;2.67;2.67;;;26.30;89.60;;;;;;4891326;29;20534;-67
2022/08/12 09:02:31;;;;;;;3.10;2.93;;;26.50;89.40;;;;;;4895899;29;20838;-67
2022/08/12 09:04:58;;;;;;;2.60;2.60;;;26.70;88.90;;;;;;4895309;29;20510;-66
2022/08/12 09:07:27;;;;;;;3.00;2.80;;;26.70;87.90;;;;;;4894963;29;20543;-68
2022/08/12 09:09:56;;;;;;;3.10;3.00;;;26.70;87.00;;;;;;4895576;29;20844;-66
2022/08/12 09:15:09;;;;;;;2.87;2.80;;;26.80;86.50;;;;;;4893856;29;20496;-67
2022/08/12 09:17:36;;;;;;;2.90;2.80;;;26.80;86.10;;;;;;4895005;29;20476;-68
2022/08/12 09:20:03;;;;;;;2.60;2.60;;;26.80;86.20;;;;;;4896345;29;20482;-67
2022/08/12 09:22:30;;;;;;;2.60;2.57;;;26.80;87.20;;;;;;4894638;29;20499;-68
2022/08/12 09:24:56;;;;;;;3.17;3.07;;;26.90;86.50;;;;;;4891703;29;20510;-67
2022/08/12 09:27:23;;;;;;;2.70;2.60;;;26.90;85.60;;;;;;4889272;29;20488;-67
2022/08/12 09:29:50;;;;;;;2.70;2.70;;;26.80;83.30;;;;;;4890114;29;20836;-67
2022/08/12 09:32:18;;;;;;;2.60;2.50;;;27.00;79.00;;;;;;4887095;29;20846;-69
2022/08/12 09:34:44;;;;;;;2.40;2.23;;;27.00;80.40;;;;;;4887025;29;20599;-68
2022/08/12 09:37:11;;;;;;;2.70;2.60;;;27.00;77.50;;;;;;4894219;29;20847;-70
2022/08/12 09:39:39;;;;;;;3.63;2.50;;;27.10;76.80;;;;;;4894875;29;20904;-69
2022/08/12 09:47:36;;;;;;;3.83;3.53;;;27.30;77.00;;;;;;4893801;29;20558;-69
2022/08/12 09:50:03;;;;;;;2.37;2.37;;;27.40;75.90;;;;;;4889194;29;20519;-69
2022/08/12 09:52:29;;;;;;;2.83;2.83;;;27.40;77.50;;;;;;4888988;29;20489;-68
2022/08/12 09:54:57;;;;;;;2.93;2.73;;;27.40;77.10;;;;;;4893314;29;20547;-69
2022/08/12 09:57:24;;;;;;;3.30;2.70;;;27.40;75.40;;;;;;4891073;29;20559;-69
2022/08/12 09:59:51;;;;;;;3.80;2.70;;;27.60;74.40;;;;;;4893822;29;20480;-69
2022/08/12 10:02:18;;;;;;;2.30;2.30;;;27.50;75.80;;;;;;4891913;29;20526;-68
2022/08/12 10:04:47;;;;;;;3.00;2.87;;;27.50;75.40;;;;;;4886946;29;20468;-69
2022/08/12 10:07:14;;;;;;;2.50;2.50;;;27.70;75.00;;;;;;4890310;29;20475;-69
2022/08/12 10:09:41;;;;;;;2.57;2.50;;;27.80;75.30;;;;;;4893519;29;20559;-69
2022/08/12 10:14:52;;;;;;;2.47;2.37;;;27.80;75.20;;;;;;4885739;29;20479;-69
2022/08/12 10:17:21;;;;;;;3.03;2.83;;;27.70;75.10;;;;;;4886151;29;20504;-69
2022/08/12 10:19:51;;;;;;;2.53;2.50;;;27.70;75.30;;;;;;4894747;29;20531;-68
2022/08/12 10:22:17;;;;;;;2.37;2.27;;;27.90;73.50;;;;;;4891824;29;20535;-68
2022/08/12 10:29:35;;;;;;;2.73;2.63;;;28.10;73.10;;;;;;4893561;29;20471;-69
2022/08/12 10:30:18;;;;;;;2.40;2.40;;;28.20;71.20;;;;;;4895443;29;20458;-66
2022/08/12 10:32:57;;;;;;;2.40;2.20;;;28.30;72.00;;;;;;4891937;29;21240;-67
2022/08/12 10:35:30;;;;;;;2.60;2.50;;;28.30;72.40;;;;;;4889644;29;20499;-66
2022/08/12 10:37:56;;;;;;;2.17;2.17;;;28.20;71.30;;;;;;4890294;29;20472;-66
2022/08/12 10:40:23;;;;;;;2.57;2.37;;;28.10;71.60;;;;;;4892919;29;20494;-66
2022/08/12 10:45:34;;;;;;;2.70;2.70;;;28.10;72.20;;;;;;4892671;29;20526;-66
2022/08/12 10:48:01;;;;;;;2.97;2.70;;;28.10;72.60;;;;;;4891196;29;20472;-67
2022/08/12 10:50:30;;;;;;;2.87;2.67;;;28.20;71.40;;;;;;4892365;29;20481;-67
2022/08/12 10:53:00;;;;;;;2.97;2.80;;;28.30;71.60;;;;;;4892950;29;20486;-67
2022/08/12 10:55:30;;;;;;;2.90;2.80;;;28.40;71.70;;;;;;4890364;29;20503;-67
2022/08/12 10:57:57;;;;;;;2.90;2.70;;;28.40;71.00;;;;;;4893487;29;20478;-67
2022/08/12 11:00:24;;;;;;;2.73;2.53;;;28.60;70.60;;;;;;4893619;29;20558;-67
2022/08/12 11:02:57;;;;;;;2.57;2.47;;;28.60;71.00;;;;;;4892202;29;20483;-67
2022/08/12 11:05:32;;;;;;;2.43;2.43;;;28.70;70.50;;;;;;4893327;29;21049;-67
2022/08/12 11:08:01;;;;;;;2.30;2.30;;;28.90;69.80;;;;;;4893531;29;20550;-66
2022/08/12 11:10:30;;;;;;;2.77;2.67;;;28.90;69.00;;;;;;4891017;29;20479;-66
2022/08/12 11:12:58;;;;;;;2.47;2.37;;;28.80;70.10;;;;;;4887072;29;20878;-68
2022/08/12 11:15:25;;;;;;;2.37;2.30;;;28.70;69.40;;;;;;4887877;29;20495;-67
2022/08/12 11:17:52;;;;;;;2.57;2.57;;;28.60;69.60;;;;;;4893320;29;20475;-68
2022/08/12 11:20:18;;;;;;;2.70;2.50;;;28.60;69.80;;;;;;4893323;29;20479;-68
2022/08/12 11:22:55;;;;;;;1.90;1.90;;;28.80;69.90;;;;;;4898109;29;20471;-68
2022/08/12 11:25:23;;;;;;;2.27;2.27;;;29.00;69.10;;;;;;4884769;29;20561;-68
2022/08/12 11:27:50;;;;;;;2.70;2.60;;;28.90;69.30;;;;;;4895947;29;20480;-68
2022/08/12 11:30:16;;;;;;;3.83;3.23;;;29.00;68.60;;;;;;4896441;29;20484;-68
2022/08/12 11:32:43;;;;;;;2.23;2.13;;;29.00;68.80;;;;;;4897212;29;20784;-68
2022/08/12 11:35:10;;;;;;;2.10;2.10;;;28.80;68.50;;;;;;4897199;29;20551;-67
2022/08/12 11:37:37;;;;;;;2.30;2.30;;;28.70;67.30;;;;;;4895262;29;20471;-68
2022/08/12 11:40:05;;;;;;;2.20;2.10;;;28.90;68.10;;;;;;4897062;29;20571;-68
2022/08/12 11:42:33;;;;;;;2.27;2.17;;;29.00;66.80;;;;;;4894261;29;20548;-68
2022/08/12 11:45:00;;;;;;;2.57;2.47;;;29.30;65.20;;;;;;4890819;29;20471;-67
2022/08/12 11:47:26;;;;;;;2.10;2.10;;;29.40;65.50;;;;;;4897045;29;20874;-68
2022/08/12 11:49:53;;;;;;;2.10;2.00;;;29.40;63.90;;;;;;4897098;29;20852;-68
2022/08/12 11:52:21;;;;;;;2.40;2.30;;;29.40;64.70;;;;;;4892563;29;20498;-68
2022/08/12 11:54:47;;;;;;;2.07;1.97;;;29.40;64.70;;;;;;4895755;29;20986;-68
2022/08/12 11:57:14;;;;;;;2.20;2.10;;;29.50;63.40;;;;;;4896291;29;21027;-68
2022/08/12 11:59:42;;;;;;;2.27;2.20;;;29.40;64.10;;;;;;4893781;29;20478;-68
2022/08/12 12:02:09;;;;;;;2.33;2.33;;;29.30;64.00;;;;;;4896639;29;20546;-68
2022/08/12 12:04:35;;;;;;;2.10;2.00;;;29.20;62.90;;;;;;4894447;29;20554;-68
2022/08/12 12:07:02;;;;;;;1.77;1.70;;;29.10;63.40;;;;;;4896318;29;20530;-68
2022/08/12 12:09:29;;;;;;;2.07;2.07;;;29.40;62.90;;;;;;4894832;29;20965;-68
2022/08/12 12:11:56;;;;;;;2.70;2.60;;;29.50;61.10;;;;;;4896432;29;20528;-68
2022/08/12 12:14:22;;;;;;;2.00;2.00;;;29.50;59.80;;;;;;4893852;29;21261;-67
2022/08/12 12:16:50;;;;;;;1.80;1.80;;;29.50;60.40;;;;;;4895745;29;20500;-68
2022/08/12 12:19:17;;;;;;;4.60;2.70;;;29.70;59.00;;;;;;4894509;29;20480;-67
2022/08/12 12:21:44;;;;;;;2.23;2.13;;;29.70;59.50;;;;;;4897161;29;20499;-67
2022/08/12 12:24:11;;;;;;;2.77;2.67;;;29.70;59.10;;;;;;4893754;29;20559;-68
2022/08/12 12:26:37;;;;;;;2.27;2.27;;;29.70;58.60;;;;;;4895721;29;20468;-68
2022/08/12 12:29:04;;;;;;;2.30;2.17;;;29.70;57.40;;;;;;4894373;29;20822;-67
2022/08/12 12:31:32;;;;;;;1.97;1.87;;;29.80;58.00;;;;;;4894434;29;20838;-68
2022/08/12 12:33:59;;;;;;;2.30;2.30;;;29.80;56.90;;;;;;4892510;29;20500;-68
2022/08/12 12:36:26;;;;;;;2.27;2.20;;;29.80;56.60;;;;;;4896190;29;20484;-68
2022/08/12 12:38:53;;;;;;;2.17;2.13;;;29.70;56.20;;;;;;4894875;29;20472;-68
2022/08/12 12:41:20;;;;;;;1.73;1.73;;;29.60;57.30;;;;;;4893490;29;20518;-67
2022/08/12 12:43:46;;;;;;;1.93;1.93;;;29.60;56.00;;;;;;4891785;29;20896;-67
2022/08/12 12:46:13;;;;;;;2.13;2.13;;;29.60;56.70;;;;;;4890667;29;20468;-68
2022/08/12 12:48:40;;;;;;;1.60;1.60;;;29.50;56.10;;;;;;4888657;29;20472;-67
2022/08/12 12:51:17;;;;;;;2.40;2.23;;;29.60;56.80;;;;;;4896148;29;20989;-67
2022/08/12 12:53:45;;;;;;;2.33;2.20;;;29.90;57.20;;;;;;4888401;29;20468;-70
2022/08/12 12:56:19;;;;;;;1.90;1.90;;;30.00;55.50;;;;;;4896751;29;20484;-68
2022/08/12 12:58:48;;;;;;;1.97;1.87;;;30.00;55.40;;;;;;4896438;29;20475;-67
2022/08/12 13:01:17;;;;;;;2.13;1.93;;;30.00;55.70;;;;;;4897065;29;20911;-67
2022/08/12 13:03:44;;;;;;;2.10;2.10;;;30.00;54.50;;;;;;4896022;29;20496;-68
2022/08/12 13:06:13;;;;;;;2.07;1.97;;;30.00;54.40;;;;;;4895719;29;20985;-68
2022/08/12 13:08:40;;;;;;;2.03;1.90;;;30.20;55.50;;;;;;4885588;29;20476;-67
2022/08/12 13:11:07;;;;;;;2.07;2.07;;;30.40;55.90;;;;;;4896542;29;20535;-68
2022/08/12 13:13:36;;;;;;;2.83;2.40;;;30.40;55.10;;;;;;4892894;29;20482;-69
2022/08/12 13:16:04;;;;;;;2.80;2.70;;;30.20;55.80;;;;;;4893015;29;20644;-68
2022/08/12 13:18:35;;;;;;;2.40;2.20;;;30.20;56.30;;;;;;4893081;29;20476;-68
2022/08/12 13:21:02;;;;;;;2.90;2.80;;;30.20;56.10;;;;;;4889738;29;20527;-67
2022/08/12 13:23:30;;;;;;;2.17;2.17;;;30.20;55.80;;;;;;4891109;29;20929;-67
2022/08/12 13:25:57;;;;;;;2.00;1.90;;;30.20;55.40;;;;;;4894582;29;20563;-68
2022/08/12 13:28:27;;;;;;;2.77;2.57;;;30.20;55.90;;;;;;4888436;29;20958;-67
2022/08/12 13:30:56;;;;;;;2.50;2.40;;;30.10;56.80;;;;;;4894698;29;20495;-68
2022/08/12 13:33:24;;;;;;;2.53;2.30;;;30.00;56.90;;;;;;4891968;29;20510;-68
2022/08/12 13:35:52;;;;;;;2.50;2.50;;;30.00;56.20;;;;;;4893288;29;20496;-67
2022/08/12 13:38:19;;;;;;;2.10;2.10;;;30.00;56.00;;;;;;4890306;29;20567;-68
2022/08/12 13:40:49;;;;;;;4.63;2.80;;;30.00;56.60;;;;;;4894167;29;20500;-68
2022/08/12 13:43:16;;;;;;;2.40;2.30;;;29.90;57.30;;;;;;4893414;29;20567;-68
2022/08/12 13:45:43;;;;;;;2.00;2.00;;;29.90;57.40;;;;;;4884998;29;20961;-68
2022/08/12 13:48:10;;;;;;;2.87;2.20;;;29.80;57.40;;;;;;4892106;29;20476;-68
2022/08/12 13:50:39;;;;;;;2.30;2.30;;;29.80;57.40;;;;;;4889645;29;20491;-68
2022/08/12 13:53:08;;;;;;;2.70;2.60;;;29.90;58.00;;;;;;4894805;29;20507;-68
2022/08/12 13:55:36;;;;;;;2.07;2.07;;;30.00;57.40;;;;;;4899197;29;20921;-69
2022/08/12 13:58:05;;;;;;;2.93;2.73;;;30.00;56.30;;;;;;4899931;29;20487;-68
2022/08/12 14:00:35;;;;;;;2.23;2.23;;;30.00;56.70;;;;;;4900313;29;20821;-67
2022/08/12 14:03:02;;;;;;;2.20;2.20;;;29.90;56.20;;;;;;4891357;29;20547;-68
2022/08/12 14:05:29;;;;;;;2.63;2.43;;;29.90;55.50;;;;;;4893019;29;20992;-67
2022/08/12 14:07:58;;;;;;;2.33;2.23;;;30.00;57.20;;;;;;4894828;29;20464;-67
2022/08/12 14:10:39;;;;;;;2.40;2.40;;;30.10;56.20;;;;;;4891826;29;20475;-67
2022/08/12 14:13:09;;;;;;;1.90;1.90;;;30.10;56.30;;;;;;4892934;29;20526;-67
2022/08/12 14:15:37;;;;;;;2.07;2.07;;;30.20;55.20;;;;;;4891123;29;20551;-67
2022/08/12 14:18:13;;;;;;;1.80;1.80;;;30.30;54.40;;;;;;4894802;29;20480;-68
2022/08/12 14:20:40;;;;;;;2.30;2.00;;;30.30;53.40;;;;;;4891589;29;21026;-68
2022/08/12 14:23:07;;;;;;;1.60;1.60;;;30.10;53.90;;;;;;4894608;29;20460;-67
2022/08/12 14:25:34;;;;;;;2.40;2.30;;;30.10;53.70;;;;;;4892191;29;20479;-68
2022/08/12 14:28:11;;;;;;;1.80;1.80;;;30.10;53.90;;;;;;4892422;29;20827;-67
2022/08/12 14:30:44;;;;;;;1.80;1.80;;;30.10;53.40;;;;;;4892503;29;20495;-68
2022/08/12 14:33:11;;;;;;;1.70;1.70;;;30.00;53.80;;;;;;4890320;29;21007;-67
2022/08/12 14:35:38;;;;;;;2.30;2.30;;;30.10;53.10;;;;;;4891353;29;20481;-68
2022/08/12 14:38:14;;;;;;;2.90;2.00;;;30.20;53.10;;;;;;4892167;29;20539;-67
2022/08/12 14:40:42;;;;;;;1.93;1.83;;;30.20;53.40;;;;;;4889826;29;20495;-67
2022/08/12 14:43:12;;;;;;;2.03;1.93;;;30.20;53.50;;;;;;4892446;29;20476;-67
2022/08/12 14:45:39;;;;;;;2.67;2.50;;;30.20;53.80;;;;;;4891746;29;20503;-67
2022/08/12 14:48:06;;;;;;;1.93;1.90;;;30.30;54.20;;;;;;4894283;29;20484;-67
2022/08/12 14:50:33;;;;;;;2.43;2.33;;;30.40;52.80;;;;;;4890296;29;20504;-67
2022/08/12 14:53:00;;;;;;;2.00;1.90;;;30.50;53.60;;;;;;4893656;29;20495;-67
2022/08/12 14:55:30;;;;;;;2.13;2.03;;;30.50;53.50;;;;;;4893970;29;20552;-67
2022/08/12 14:57:57;;;;;;;2.13;2.03;;;30.40;53.40;;;;;;4897592;29;20496;-66
2022/08/12 15:03:13;;;;;;;2.40;2.30;;;30.40;54.50;;;;;;4877219;29;20474;-67
2022/08/12 15:05:41;;;;;;;2.47;2.20;;;30.40;55.00;;;;;;4895317;29;20529;-67
2022/08/12 15:08:10;;;;;;;2.23;2.23;;;30.30;54.60;;;;;;4894774;29;20524;-67
2022/08/12 15:10:38;;;;;;;2.47;2.37;;;30.20;54.40;;;;;;4897963;29;20488;-68
2022/08/12 15:13:05;;;;;;;2.23;2.23;;;30.20;54.30;;;;;;4894763;29;20471;-67
2022/08/12 15:15:34;;;;;;;2.00;1.90;;;30.20;54.70;;;;;;4896508;29;20499;-68
2022/08/12 15:18:01;;;;;;;2.17;2.10;;;30.20;54.90;;;;;;4896050;29;20522;-67
2022/08/12 15:20:28;;;;;;;2.17;2.07;;;30.20;55.90;;;;;;4896726;29;20475;-67
2022/08/12 15:22:55;;;;;;;1.90;1.90;;;30.20;55.70;;;;;;4894858;29;20480;-67
2022/08/12 15:25:22;;;;;;;2.00;2.00;;;30.20;55.10;;;;;;4896797;29;20541;-68
2022/08/12 15:27:51;;;;;;;1.70;1.70;;;30.10;55.50;;;;;;4896516;29;20468;-68
2022/08/12 15:30:18;;;;;;;2.20;2.20;;;30.30;54.70;;;;;;4897582;29;20969;-67
2022/08/12 15:32:46;;;;;;;2.10;2.00;;;30.30;54.50;;;;;;4896775;29;20898;-67
2022/08/12 15:35:14;;;;;;;2.00;2.00;;;30.30;54.40;;;;;;4897216;29;20476;-68
2022/08/12 15:37:41;;;;;;;2.20;2.10;;;30.30;54.80;;;;;;4893764;29;20605;-68
2022/08/12 15:40:10;;;;;;;2.30;2.30;;;30.40;54.80;;;;;;4895545;29;20476;-67
2022/08/12 15:42:37;;;;;;;2.20;2.17;;;30.40;54.30;;;;;;4897257;29;20573;-67
2022/08/12 15:45:05;;;;;;;2.30;2.20;;;30.40;54.00;;;;;;4895063;29;20571;-67
2022/08/12 15:47:31;;;;;;;1.90;1.80;;;30.40;54.10;;;;;;4898165;29;20472;-67
2022/08/12 15:50:00;;;;;;;2.17;2.17;;;30.30;53.80;;;;;;4895708;29;20527;-67
2022/08/12 15:52:28;;;;;;;2.07;2.00;;;30.30;53.50;;;;;;4896009;29;20503;-67
2022/08/12 15:54:58;;;;;;;1.80;1.80;;;30.30;54.50;;;;;;4893665;29;20471;-67
2022/08/12 15:57:25;;;;;;;2.77;2.70;;;30.30;53.60;;;;;;4897390;29;20494;-68
2022/08/12 15:59:52;;;;;;;2.37;2.33;;;30.30;53.40;;;;;;4889958;29;20481;-66
2022/08/12 16:02:19;;;;;;;1.90;1.80;;;30.30;53.10;;;;;;4892417;29;20853;-68
2022/08/12 16:04:50;;;;;;;1.90;1.90;;;30.30;53.30;;;;;;4896130;29;20500;-67
2022/08/12 16:07:24;;;;;;;2.00;2.00;;;30.20;53.20;;;;;;4895924;29;20882;-68
2022/08/12 16:09:51;;;;;;;2.87;1.80;;;30.20;53.70;;;;;;4892815;29;20507;-68
2022/08/12 16:12:17;;;;;;;2.20;2.10;;;30.30;54.00;;;;;;4896595;29;20551;-67
2022/08/12 16:14:46;;;;;;;1.87;1.77;;;30.30;53.40;;;;;;4894577;29;20602;-67
2022/08/12 16:17:14;;;;;;;1.87;1.87;;;30.30;53.60;;;;;;4891696;29;20574;-67
2022/08/12 16:19:41;;;;;;;2.33;2.23;;;30.30;53.90;;;;;;4891033;29;20488;-67
2022/08/12 16:22:09;;;;;;;1.70;1.70;;;30.30;53.20;;;;;;4895089;29;20574;-68
2022/08/12 16:24:42;;;;;;;1.70;1.70;;;30.20;52.30;;;;;;4897322;29;20464;-67
2022/08/12 16:27:09;;;;;;;1.63;1.63;;;30.20;52.10;;;;;;4892663;29;20486;-67
2022/08/12 16:29:38;;;;;;;2.10;2.10;;;30.20;52.40;;;;;;4895234;29;20472;-68
2022/08/12 16:32:05;;;;;;;2.13;2.00;;;30.10;51.60;;;;;;4896110;29;20502;-68
2022/08/12 16:34:33;;;;;;;1.73;1.73;;;30.10;51.90;;;;;;4894649;29;20972;-68
2022/08/12 16:37:00;;;;;;;1.80;1.80;;;30.00;51.80;;;;;;4895524;29;20496;-67
2022/08/12 16:39:27;;;;;;;1.90;1.90;;;30.00;51.80;;;;;;4890013;29;20969;-68
2022/08/12 16:44:32;;;;;;;1.90;1.80;;;30.00;52.00;;;;;;4890062;29;21019;-69
2022/08/12 16:46:59;;;;;;;2.10;2.10;;;29.90;51.80;;;;;;4895791;29;20475;-69
2022/08/12 16:49:26;;;;;;;1.83;1.73;;;29.90;52.50;;;;;;4896022;29;20472;-70
2022/08/12 16:51:53;;;;;;;2.27;2.17;;;29.90;53.20;;;;;;4895966;29;20984;-69
2022/08/12 16:54:21;;;;;;;2.37;2.27;;;29.90;54.10;;;;;;4895151;29;20508;-70
2022/08/12 16:56:49;;;;;;;2.57;2.47;;;29.80;52.70;;;;;;4895120;29;20503;-70
2022/08/12 16:59:17;;;;;;;2.40;2.37;;;29.80;53.30;;;;;;4895998;29;20571;-69
2022/08/12 17:01:46;;;;;;;2.00;1.90;;;29.70;53.40;;;;;;4895657;29;20909;-70
2022/08/12 17:04:12;;;;;;;2.00;2.00;;;29.80;53.60;;;;;;4896785;29;20518;-72
2022/08/12 17:06:42;;;;;;;2.20;2.10;;;29.80;53.20;;;;;;4896397;29;20472;-69
2022/08/12 17:09:09;;;;;;;2.53;2.47;;;29.70;53.00;;;;;;4895209;29;20487;-69
2022/08/12 17:11:38;;;;;;;2.40;2.20;;;29.60;53.20;;;;;;4894019;29;20476;-69
2022/08/12 17:14:05;;;;;;;1.93;1.93;;;29.50;53.90;;;;;;4896897;29;20495;-70
2022/08/12 17:16:36;;;;;;;2.37;2.30;;;29.50;53.50;;;;;;4897613;29;20472;-69
2022/08/12 17:19:06;;;;;;;1.67;1.57;;;29.40;53.70;;;;;;4897422;29;20547;-69
2022/08/12 17:21:35;;;;;;;2.83;2.73;;;29.30;53.50;;;;;;4898532;29;20517;-70
2022/08/12 17:24:07;;;;;;;1.87;1.77;;;29.20;53.90;;;;;;4894661;29;20547;-70